createdAt,value
2023-03-29T00:00:36.073Z,4.68
2023-03-29T00:03:17.656Z,3.83
2023-03-29T00:05:46.066Z,4.20
2023-03-29T00:08:15.016Z,4.80
2023-03-29T00:10:43.701Z,4.40
2023-03-29T00:13:11.910Z,4.93
2023-03-29T00:15:42.173Z,4.72
2023-03-29T00:18:10.393Z,4.30
2023-03-29T00:20:38.729Z,4.72
2023-03-29T00:23:07.582Z,4.28
2023-03-29T00:25:35.968Z,4.22
2023-03-29T00:28:04.094Z,4.25
2023-03-29T00:30:32.315Z,4.22
2023-03-29T00:33:00.325Z,4.30
2023-03-29T00:35:28.772Z,4.53
2023-03-29T00:37:58.008Z,4.50
2023-03-29T00:40:26.717Z,4.88
2023-03-29T00:42:56.553Z,4.10
2023-03-29T00:45:30.592Z,4.28
2023-03-29T00:48:03.138Z,4.18
2023-03-29T00:50:43.098Z,4.40
2023-03-29T00:53:34.211Z,4.65
2023-03-29T00:56:14.354Z,4.35
2023-03-29T00:58:49.498Z,4.20
2023-03-29T01:01:34.404Z,4.60
2023-03-29T01:04:18.467Z,4.55
2023-03-29T01:06:58.789Z,4.20
2023-03-29T01:09:30.747Z,4.30
2023-03-29T01:12:05.879Z,4.47
2023-03-29T01:14:39.154Z,4.90
2023-03-29T01:17:07.861Z,4.53
2023-03-29T01:19:42.700Z,4.50
2023-03-29T01:22:39.017Z,4.00
2023-03-29T01:25:36.077Z,4.82
2023-03-29T01:28:08.994Z,4.80
2023-03-29T01:30:51.693Z,4.45
2023-03-29T01:33:25.640Z,4.45
2023-03-29T01:36:01.781Z,4.43
2023-03-29T01:38:30.083Z,5.45
2023-03-29T01:40:57.980Z,4.32
2023-03-29T01:43:43.033Z,4.90
2023-03-29T01:46:33.914Z,4.55
2023-03-29T01:49:11.619Z,4.45
2023-03-29T01:51:46.368Z,4.43
2023-03-29T01:54:20.925Z,4.28
2023-03-29T01:56:50.838Z,5.18
2023-03-29T01:59:23.326Z,5.25
2023-03-29T02:02:01.532Z,4.40
2023-03-29T02:04:34.927Z,4.65
2023-03-29T02:07:05.492Z,4.40
2023-03-29T02:09:37.534Z,4.70
2023-03-29T02:12:08.265Z,4.75
2023-03-29T02:14:36.761Z,5.28
2023-03-29T02:17:28.915Z,5.35
2023-03-29T02:20:19.301Z,4.68
2023-03-29T02:22:55.110Z,5.30
2023-03-29T02:27:53.884Z,4.65
2023-03-29T02:30:25.048Z,4.43
2023-03-29T02:33:22.230Z,4.82
2023-03-29T02:36:01.016Z,4.63
2023-03-29T02:38:31.572Z,4.15
2023-03-29T02:41:02.467Z,4.93
2023-03-29T02:43:33.277Z,4.70
2023-03-29T02:46:03.193Z,4.57
2023-03-29T02:48:32.843Z,4.63
2023-03-29T02:51:06.107Z,4.40
2023-03-29T02:54:01.300Z,4.50
2023-03-29T02:56:30.138Z,5.25
2023-03-29T02:58:57.937Z,5.03
2023-03-29T03:01:26.491Z,4.72
2023-03-29T03:03:54.710Z,4.88
2023-03-29T03:06:23.191Z,4.55
2023-03-29T03:08:51.560Z,5.13
2023-03-29T03:11:19.789Z,3.72
2023-03-29T03:13:47.632Z,4.18
2023-03-29T03:16:15.953Z,4.15
2023-03-29T03:18:46.317Z,4.72
2023-03-29T03:21:15.045Z,4.70
2023-03-29T03:23:42.856Z,4.30
2023-03-29T03:26:11.336Z,4.43
2023-03-29T03:28:40.572Z,4.13
2023-03-29T03:31:16.180Z,4.40
2023-03-29T03:34:02.459Z,4.18
2023-03-29T03:36:56.736Z,4.28
2023-03-29T03:39:24.550Z,4.28
2023-03-29T03:41:53.198Z,4.40
2023-03-29T03:44:21.785Z,3.78
2023-03-29T03:47:01.051Z,4.28
2023-03-29T03:49:29.372Z,4.30
2023-03-29T03:51:57.650Z,3.72
2023-03-29T03:54:25.714Z,4.32
2023-03-29T03:57:16.915Z,4.47
2023-03-29T03:59:50.881Z,4.05
2023-03-29T04:04:55.409Z,4.20
2023-03-29T04:07:31.135Z,4.47
2023-03-29T04:10:17.579Z,5.25
2023-03-29T04:13:12.410Z,5.93
2023-03-29T04:16:01.826Z,5.40
2023-03-29T04:18:31.180Z,6.47
2023-03-29T04:21:00.824Z,6.03
2023-03-29T04:23:30.561Z,6.63
2023-03-29T04:25:58.630Z,5.70
2023-03-29T04:28:45.275Z,6.88
2023-03-29T04:31:18.280Z,6.38
2023-03-29T04:33:53.115Z,6.05
2023-03-29T04:36:21.805Z,5.85
2023-03-29T04:38:52.816Z,5.82
2023-03-29T04:41:21.304Z,6.57
2023-03-29T04:43:58.919Z,8.10
2023-03-29T04:46:31.002Z,7.00
2023-03-29T04:49:26.118Z,7.00
2023-03-29T04:51:55.605Z,9.10
2023-03-29T04:54:28.103Z,7.45
2023-03-29T04:57:12.624Z,6.70
2023-03-29T05:00:00.510Z,6.63
2023-03-29T05:02:51.920Z,6.82
2023-03-29T05:05:21.326Z,6.30
2023-03-29T05:07:51.114Z,6.82
2023-03-29T05:10:24.042Z,7.18
2023-03-29T05:12:54.417Z,6.15
2023-03-29T05:15:24.277Z,7.00
2023-03-29T05:17:52.163Z,6.88
2023-03-29T05:20:20.564Z,7.38
2023-03-29T05:22:49.061Z,7.40
2023-03-29T05:26:05.217Z,6.90
2023-03-29T05:28:39.528Z,7.78
2023-03-29T05:31:16.704Z,7.78
2023-03-29T05:33:48.667Z,7.00
2023-03-29T05:36:19.889Z,8.32
2023-03-29T05:38:53.282Z,7.07
2023-03-29T05:41:29.101Z,7.20
2023-03-29T05:44:35.341Z,7.97
2023-03-29T05:47:14.440Z,8.30
2023-03-29T05:49:42.906Z,8.10
2023-03-29T05:52:14.846Z,7.90
2023-03-29T05:54:43.066Z,8.38
2023-03-29T05:57:13.324Z,8.23
2023-03-29T05:59:42.620Z,8.75
2023-03-29T06:02:12.629Z,8.23
2023-03-29T06:04:45.774Z,8.40
2023-03-29T06:07:26.060Z,8.40
2023-03-29T06:10:29.095Z,9.50
2023-03-29T06:13:12.229Z,9.05
2023-03-29T06:15:40.855Z,9.48
2023-03-29T06:18:11.177Z,9.55
2023-03-29T06:20:39.859Z,8.85
2023-03-29T06:23:13.683Z,9.60
2023-03-29T06:25:41.604Z,9.40
2023-03-29T06:28:09.969Z,12.60
2023-03-29T06:30:38.390Z,12.65
2023-03-29T06:33:07.580Z,7.82
2023-03-29T06:35:59.006Z,7.75
2023-03-29T06:38:31.390Z,9.65
2023-03-29T06:41:07.655Z,7.68
2023-03-29T06:44:07.958Z,7.53
2023-03-29T06:46:43.714Z,7.33
2023-03-29T06:49:12.326Z,6.80
2023-03-29T06:52:03.099Z,7.32
2023-03-29T06:54:31.518Z,6.45
2023-03-29T06:57:05.965Z,7.50
2023-03-29T06:59:35.956Z,5.82
2023-03-29T07:02:38.062Z,7.45
2023-03-29T07:05:13.941Z,6.32
2023-03-29T07:08:00.479Z,6.65
2023-03-29T07:10:42.757Z,6.13
2023-03-29T07:13:43.944Z,6.18
2023-03-29T07:16:16.805Z,5.95
2023-03-29T07:18:58.868Z,5.93
2023-03-29T07:21:53.679Z,5.70
2023-03-29T07:24:25.550Z,5.70
2023-03-29T07:27:03.390Z,5.40
2023-03-29T07:29:33.543Z,5.35
2023-03-29T07:32:01.824Z,4.97
2023-03-29T07:34:44.676Z,4.88
2023-03-29T07:37:37.814Z,4.82
2023-03-29T07:40:16.461Z,5.20
2023-03-29T07:43:09.253Z,4.90
2023-03-29T07:45:37.706Z,4.80
2023-03-29T07:48:10.643Z,5.25
2023-03-29T07:51:08.375Z,5.05
2023-03-29T07:54:00.225Z,4.88
2023-03-29T07:57:03.477Z,4.57
2023-03-29T07:59:43.847Z,4.40
2023-03-29T08:02:18.130Z,4.63
2023-03-29T08:04:49.424Z,7.68
2023-03-29T08:07:21.651Z,5.10
2023-03-29T08:10:10.547Z,5.10
2023-03-29T08:12:58.906Z,4.97
2023-03-29T08:15:35.161Z,4.72
2023-03-29T08:18:03.210Z,5.25
2023-03-29T08:20:32.691Z,4.38
2023-03-29T08:23:03.741Z,4.28
2023-03-29T08:25:52.592Z,4.00
2023-03-29T08:28:21.381Z,3.75
2023-03-29T08:30:53.049Z,3.90
2023-03-29T08:33:21.117Z,4.63
2023-03-29T08:35:58.068Z,4.90
2023-03-29T08:38:31.019Z,4.05
2023-03-29T08:40:59.634Z,3.88
2023-03-29T08:44:09.874Z,4.00
2023-03-29T08:47:07.519Z,4.20
2023-03-29T08:49:44.297Z,3.80
2023-03-29T08:52:37.728Z,3.80
2023-03-29T08:55:38.498Z,3.70
2023-03-29T08:58:42.879Z,3.75
2023-03-29T09:01:11.872Z,3.47
2023-03-29T09:03:54.271Z,3.53
2023-03-29T09:06:34.289Z,3.67
2023-03-29T09:09:29.570Z,3.47
2023-03-29T09:11:59.477Z,4.07
2023-03-29T09:14:43.817Z,4.30
2023-03-29T09:17:30.355Z,4.32
2023-03-29T09:20:39.730Z,4.20
2023-03-29T09:23:29.728Z,4.70
2023-03-29T09:26:31.758Z,4.40
2023-03-29T09:29:44.496Z,5.20
2023-03-29T09:32:22.634Z,5.28
2023-03-29T09:35:18.750Z,5.55
2023-03-29T09:37:51.556Z,5.05
2023-03-29T09:40:25.052Z,5.40
2023-03-29T09:43:08.849Z,5.80
2023-03-29T09:45:41.613Z,5.10
2023-03-29T09:48:15.204Z,4.55
2023-03-29T09:50:51.734Z,4.18
2023-03-29T09:53:22.308Z,4.25
2023-03-29T09:56:11.046Z,3.78
2023-03-29T09:58:47.261Z,3.83
2023-03-29T10:01:17.943Z,3.67
2023-03-29T10:03:53.519Z,3.92
2023-03-29T10:06:27.037Z,4.22
2023-03-29T10:09:00.350Z,3.92
2023-03-29T10:11:38.740Z,4.13
2023-03-29T10:14:18.485Z,3.95
2023-03-29T10:16:47.905Z,3.45
2023-03-29T10:19:22.860Z,3.47
2023-03-29T10:21:54.300Z,4.53
2023-03-29T10:24:24.619Z,4.63
2023-03-29T10:26:56.174Z,4.43
2023-03-29T10:29:26.476Z,4.40
2023-03-29T10:31:55.512Z,4.35
2023-03-29T10:34:26.373Z,4.22
2023-03-29T10:37:03.598Z,4.00
2023-03-29T10:39:34.872Z,4.45
2023-03-29T10:42:04.715Z,3.85
2023-03-29T10:44:36.880Z,4.38
2023-03-29T10:47:17.108Z,4.47
2023-03-29T10:49:51.009Z,4.50
2023-03-29T10:52:19.399Z,3.80
2023-03-29T10:54:49.901Z,4.60
2023-03-29T10:57:34.375Z,4.40
2023-03-29T11:00:19.010Z,3.75
2023-03-29T11:03:05.923Z,4.20
2023-03-29T11:05:47.009Z,4.47
2023-03-29T11:08:24.028Z,4.60
2023-03-29T11:11:10.920Z,3.83
2023-03-29T11:16:24.984Z,4.10
2023-03-29T11:19:07.730Z,3.47
2023-03-29T11:21:56.896Z,4.10
2023-03-29T11:25:03.289Z,3.67
2023-03-29T11:27:43.104Z,4.45
2023-03-29T11:30:22.612Z,3.70
2023-03-29T11:33:25.418Z,3.60
2023-03-29T11:35:56.745Z,4.20
2023-03-29T11:38:37.425Z,3.72
2023-03-29T11:41:18.958Z,3.70
2023-03-29T11:43:55.231Z,3.55
2023-03-29T11:49:10.694Z,3.47
2023-03-29T11:51:45.272Z,4.20
2023-03-29T11:54:19.315Z,3.80
2023-03-29T11:57:07.639Z,4.57
2023-03-29T11:59:54.506Z,3.70
2023-03-29T12:02:34.002Z,3.70
2023-03-29T12:05:11.268Z,3.85
2023-03-29T12:07:50.865Z,3.97
2023-03-29T12:10:31.238Z,3.53
2023-03-29T12:13:31.375Z,3.60
2023-03-29T12:16:26.793Z,2.80
2023-03-29T12:18:58.481Z,2.95
2023-03-29T12:21:30.650Z,2.80
2023-03-29T12:23:59.603Z,3.55
2023-03-29T12:26:47.030Z,2.72
2023-03-29T12:29:29.784Z,3.60
2023-03-29T12:31:57.962Z,3.05
2023-03-29T12:35:04.716Z,3.25
2023-03-29T12:38:22.730Z,3.20
2023-03-29T12:41:21.997Z,3.47
2023-03-29T12:44:28.791Z,3.80
2023-03-29T12:47:02.341Z,3.47
2023-03-29T12:49:34.821Z,3.45
2023-03-29T12:52:08.812Z,3.90
2023-03-29T12:54:37.263Z,3.80
2023-03-29T12:57:27.703Z,3.40
2023-03-29T12:59:56.737Z,3.35
2023-03-29T13:02:36.499Z,3.85
2023-03-29T13:05:05.930Z,3.50
2023-03-29T13:07:47.529Z,3.33
2023-03-29T13:10:55.466Z,3.15
2023-03-29T13:13:44.247Z,3.40
2023-03-29T13:16:16.609Z,3.15
2023-03-29T13:19:08.710Z,2.83
2023-03-29T13:22:08.078Z,3.20
2023-03-29T13:25:06.474Z,2.80
2023-03-29T13:27:53.122Z,3.30
2023-03-29T13:30:24.389Z,3.63
2023-03-29T13:33:27.174Z,3.75
2023-03-29T13:36:06.192Z,2.60
2023-03-29T13:38:46.603Z,2.70
2023-03-29T13:41:48.693Z,2.88
2023-03-29T13:44:27.980Z,2.75
2023-03-29T13:47:16.800Z,2.88
2023-03-29T13:49:56.701Z,2.55
2023-03-29T13:52:48.684Z,2.90
2023-03-29T13:55:33.654Z,2.95
2023-03-29T13:58:24.457Z,2.80
2023-03-29T14:01:18.062Z,2.78
2023-03-29T14:03:48.946Z,2.80
2023-03-29T14:06:24.423Z,2.92
2023-03-29T14:08:53.479Z,3.55
2023-03-29T14:11:25.758Z,3.97
2023-03-29T14:13:55.932Z,4.68
2023-03-29T14:16:28.970Z,4.22
2023-03-29T14:19:00.655Z,4.45
2023-03-29T14:21:29.709Z,4.38
2023-03-29T14:24:02.555Z,4.65
2023-03-29T14:26:34.215Z,4.53
2023-03-29T14:29:03.546Z,4.75
2023-03-29T14:31:38.072Z,5.15
2023-03-29T14:34:13.554Z,4.57
2023-03-29T14:36:45.365Z,4.38
2023-03-29T14:39:18.539Z,4.57
2023-03-29T14:41:51.937Z,5.43
2023-03-29T14:44:26.322Z,4.05
2023-03-29T14:46:56.816Z,4.18
2023-03-29T14:49:25.915Z,5.18
2023-03-29T14:51:55.459Z,4.57
2023-03-29T14:54:33.669Z,4.30
2023-03-29T14:57:07.447Z,4.07
2023-03-29T14:59:35.552Z,4.20
2023-03-29T15:02:04.933Z,4.63
2023-03-29T15:04:34.632Z,4.53
2023-03-29T15:07:05.342Z,4.90
2023-03-29T15:09:35.243Z,4.75
2023-03-29T15:12:04.326Z,4.40
2023-03-29T15:14:34.664Z,4.47
2023-03-29T15:17:23.165Z,4.38
2023-03-29T15:20:10.128Z,4.32
2023-03-29T15:22:40.306Z,4.03
2023-03-29T15:25:17.522Z,6.60
2023-03-29T15:27:50.781Z,4.63
2023-03-29T15:30:19.450Z,4.55
2023-03-29T15:32:47.668Z,4.10
2023-03-29T15:35:24.828Z,5.10
2023-03-29T15:37:53.639Z,5.18
2023-03-29T15:40:26.781Z,5.00
2023-03-29T15:42:55.897Z,5.22
2023-03-29T15:45:23.844Z,5.10
2023-03-29T15:47:52.219Z,5.40
2023-03-29T15:50:20.673Z,5.32
2023-03-29T15:52:49.616Z,5.65
2023-03-29T15:55:18.823Z,6.00
2023-03-29T15:57:49.172Z,6.30
2023-03-29T16:00:21.484Z,7.10
2023-03-29T16:02:51.098Z,5.53
2023-03-29T16:05:20.135Z,5.72
2023-03-29T16:07:48.551Z,253.90
2023-03-29T16:10:16.906Z,70.63
2023-03-29T16:12:45.146Z,19.33
2023-03-29T16:15:18.827Z,9.05
2023-03-29T16:17:47.651Z,6.63
2023-03-29T16:20:20.526Z,25.83
2023-03-29T16:22:49.703Z,30.98
2023-03-29T16:25:23.089Z,77.60
2023-03-29T16:27:54.015Z,111.38
2023-03-29T16:30:21.906Z,102.20
2023-03-29T16:32:50.210Z,107.53
2023-03-29T16:35:38.681Z,121.47
2023-03-29T16:38:08.044Z,163.32
2023-03-29T16:40:36.937Z,127.85
2023-03-29T16:43:05.216Z,20.05
2023-03-29T16:45:33.561Z,5.82
2023-03-29T16:48:01.939Z,6.88
2023-03-29T16:50:30.437Z,11.10
2023-03-29T16:52:58.678Z,7.55
2023-03-29T16:55:26.536Z,5.65
2023-03-29T16:57:54.800Z,5.40
2023-03-29T17:00:23.474Z,4.78
2023-03-29T17:02:51.681Z,5.03
2023-03-29T17:05:19.794Z,5.20
2023-03-29T17:07:48.107Z,5.15
2023-03-29T17:10:15.923Z,4.22
2023-03-29T17:12:44.632Z,4.78
2023-03-29T17:15:12.501Z,8.00
2023-03-29T17:17:41.426Z,9.02
2023-03-29T17:20:12.708Z,6.05
2023-03-29T17:22:41.412Z,4.68
2023-03-29T17:25:10.329Z,4.78
2023-03-29T17:27:38.532Z,4.85
2023-03-29T17:30:07.399Z,4.82
2023-03-29T17:32:36.757Z,4.65
2023-03-29T17:35:05.166Z,3.95
2023-03-29T17:37:33.646Z,3.95
2023-03-29T17:40:01.451Z,4.00
2023-03-29T17:42:31.210Z,3.90
2023-03-29T17:44:59.150Z,3.90
2023-03-29T17:47:27.538Z,6.78
2023-03-29T17:49:55.755Z,4.18
2023-03-29T17:52:25.678Z,3.17
2023-03-29T17:54:54.165Z,2.92
2023-03-29T17:57:22.712Z,2.95
2023-03-29T17:59:50.904Z,2.47
2023-03-29T18:02:23.288Z,3.10
2023-03-29T18:04:52.473Z,3.00
2023-03-29T18:07:20.692Z,2.80
2023-03-29T18:09:48.718Z,2.90
2023-03-29T18:12:19.114Z,2.42
2023-03-29T18:14:49.780Z,2.70
2023-03-29T18:17:18.109Z,2.42
2023-03-29T18:19:48.880Z,2.67
2023-03-29T18:22:20.147Z,3.47
2023-03-29T18:24:49.505Z,5.90
2023-03-29T18:27:18.731Z,8.10
2023-03-29T18:29:46.602Z,5.95
2023-03-29T18:32:15.360Z,3.70
2023-03-29T18:34:43.425Z,2.15
2023-03-29T18:37:17.753Z,2.53
2023-03-29T18:39:48.218Z,1.50
2023-03-29T18:42:16.669Z,1.60
2023-03-29T18:44:44.796Z,1.40
2023-03-29T18:47:13.560Z,1.90
2023-03-29T18:49:42.170Z,1.48
2023-03-29T18:52:10.440Z,1.45
2023-03-29T18:54:38.962Z,1.60
2023-03-29T18:57:08.395Z,1.30
2023-03-29T18:59:36.930Z,1.30
2023-03-29T19:02:05.134Z,1.80
2023-03-29T19:04:35.721Z,1.50
2023-03-29T19:07:03.992Z,1.55
2023-03-29T19:09:32.114Z,1.40
2023-03-29T19:12:00.727Z,1.10
2023-03-29T19:14:31.393Z,1.25
2023-03-29T19:17:01.004Z,1.20
2023-03-29T19:19:28.923Z,0.88
2023-03-29T19:22:00.409Z,0.90
2023-03-29T19:24:30.237Z,0.80
2023-03-29T19:26:58.803Z,1.13
2023-03-29T19:29:26.683Z,1.00
2023-03-29T19:31:57.423Z,0.98
2023-03-29T19:34:25.397Z,0.90
2023-03-29T19:36:55.412Z,0.80
2023-03-29T19:39:23.494Z,1.00
2023-03-29T19:41:51.814Z,1.02
2023-03-29T19:44:20.456Z,0.80
2023-03-29T19:46:50.626Z,0.73
2023-03-29T19:49:19.051Z,0.90
2023-03-29T19:51:48.383Z,0.80
2023-03-29T19:54:17.579Z,0.73
2023-03-29T19:56:46.748Z,0.65
2023-03-29T19:59:15.198Z,0.77
2023-03-29T20:01:51.078Z,0.70
2023-03-29T20:04:21.201Z,0.60
2023-03-29T20:06:49.657Z,0.50
2023-03-29T20:09:17.738Z,0.60
2023-03-29T20:11:55.675Z,1.15
2023-03-29T20:14:27.499Z,0.52
2023-03-29T20:17:05.015Z,0.50
2023-03-29T20:19:36.832Z,0.60
2023-03-29T20:22:05.547Z,0.70
2023-03-29T20:24:34.958Z,0.50
2023-03-29T20:27:04.754Z,0.60
2023-03-29T20:29:33.591Z,0.50
2023-03-29T20:32:02.047Z,0.47
2023-03-29T20:34:30.411Z,0.50
2023-03-29T20:37:01.097Z,0.50
2023-03-29T20:39:31.693Z,0.50
2023-03-29T20:42:00.907Z,0.50
2023-03-29T20:44:29.622Z,0.50
2023-03-29T20:47:05.243Z,0.50
2023-03-29T20:49:38.770Z,0.50
2023-03-29T20:52:15.672Z,0.60
2023-03-29T20:54:45.491Z,0.50
2023-03-29T20:57:19.158Z,0.38
2023-03-29T20:59:49.550Z,0.40
2023-03-29T21:02:21.682Z,0.45
2023-03-29T21:04:52.096Z,0.50
2023-03-29T21:07:22.029Z,0.60
2023-03-29T21:09:50.646Z,0.63
2023-03-29T21:12:21.044Z,0.45
2023-03-29T21:14:49.082Z,0.45
2023-03-29T21:17:17.513Z,0.52
2023-03-29T21:19:45.523Z,0.40
2023-03-29T21:22:14.213Z,0.40
2023-03-29T21:24:42.089Z,0.50
2023-03-29T21:27:10.222Z,0.38
2023-03-29T21:29:38.063Z,0.50
2023-03-29T21:32:06.716Z,0.40
2023-03-29T21:34:34.788Z,0.45
2023-03-29T21:37:04.027Z,0.40
2023-03-29T21:39:33.178Z,0.40
2023-03-29T21:42:01.910Z,0.60
2023-03-29T21:44:31.431Z,0.30
2023-03-29T21:47:01.263Z,0.35
2023-03-29T21:49:29.234Z,0.30
2023-03-29T21:51:57.848Z,0.50
2023-03-29T21:54:26.034Z,0.30
2023-03-29T21:56:55.837Z,0.30
2023-03-29T21:59:23.849Z,0.35
2023-03-29T22:01:53.272Z,0.30
2023-03-29T22:04:33.549Z,0.40
2023-03-29T22:07:05.807Z,0.70
2023-03-29T22:09:35.463Z,0.30
2023-03-29T22:12:05.092Z,0.35
2023-03-29T22:14:37.212Z,0.30
2023-03-29T22:17:06.664Z,0.30
2023-03-29T22:19:42.096Z,0.30
2023-03-29T22:22:14.123Z,0.40
2023-03-29T22:24:42.598Z,0.20
2023-03-29T22:27:11.972Z,0.32
2023-03-29T22:29:40.097Z,0.30
2023-03-29T22:32:11.793Z,0.30
2023-03-29T22:34:40.024Z,0.40
2023-03-29T22:37:09.237Z,0.60
2023-03-29T22:39:38.708Z,0.32
2023-03-29T22:42:07.522Z,0.30
2023-03-29T22:44:35.698Z,0.30
2023-03-29T22:47:04.033Z,0.60
2023-03-29T22:49:32.112Z,0.32
2023-03-29T22:52:01.694Z,0.30
2023-03-29T22:54:30.033Z,0.38
2023-03-29T22:56:59.568Z,0.30
2023-03-29T22:59:28.097Z,0.30
2023-03-29T23:01:56.682Z,0.32
2023-03-29T23:04:24.673Z,0.30
2023-03-29T23:06:53.520Z,0.30
2023-03-29T23:09:21.543Z,0.30
2023-03-29T23:11:49.695Z,0.40
2023-03-29T23:14:19.223Z,0.32
2023-03-29T23:16:48.142Z,0.40
2023-03-29T23:19:16.459Z,0.30
2023-03-29T23:21:45.097Z,0.30
2023-03-29T23:24:13.653Z,0.32
2023-03-29T23:26:42.392Z,0.30
2023-03-29T23:29:10.325Z,0.60
2023-03-29T23:31:38.934Z,0.30
2023-03-29T23:34:11.508Z,0.30
2023-03-29T23:36:39.795Z,0.30
2023-03-29T23:39:09.138Z,0.20
2023-03-29T23:41:40.578Z,0.22
2023-03-29T23:44:08.803Z,0.30
2023-03-29T23:46:37.502Z,0.30
2023-03-29T23:49:05.420Z,0.30
2023-03-29T23:51:35.238Z,0.30
2023-03-29T23:54:03.800Z,0.45
2023-03-29T23:56:32.257Z,0.20
2023-03-29T23:59:00.575Z,0.40
